createdAt,value
2019-01-20T00:00:20.651Z,9.10
2019-01-20T00:02:49.370Z,8.80
2019-01-20T00:05:18.459Z,8.43
2019-01-20T00:07:47.022Z,8.60
2019-01-20T00:10:18.686Z,9.33
2019-01-20T00:12:50.298Z,8.67
2019-01-20T00:15:20.296Z,8.57
2019-01-20T00:17:53.228Z,9.03
2019-01-20T00:20:21.976Z,9.10
2019-01-20T00:22:50.498Z,9.00
2019-01-20T00:25:19.010Z,8.60
2019-01-20T00:27:47.550Z,8.57
2019-01-20T00:30:17.694Z,9.70
2019-01-20T00:32:46.331Z,8.73
2019-01-20T00:35:16.493Z,9.47
2019-01-20T00:37:45.071Z,9.23
2019-01-20T00:40:15.927Z,8.60
2019-01-20T00:42:45.090Z,8.73
2019-01-20T00:45:17.750Z,9.03
2019-01-20T00:47:46.406Z,9.10
2019-01-20T00:50:16.765Z,9.30
2019-01-20T00:52:47.910Z,8.70
2019-01-20T00:55:17.345Z,8.47
2019-01-20T00:57:46.151Z,8.17
2019-01-20T01:00:18.526Z,10.27
2019-01-20T01:02:47.072Z,8.83
2019-01-20T01:05:16.249Z,9.63
2019-01-20T01:07:44.884Z,8.97
2019-01-20T01:10:16.518Z,9.80
2019-01-20T01:12:45.739Z,8.73
2019-01-20T01:15:14.467Z,9.07
2019-01-20T01:17:43.090Z,8.90
2019-01-20T01:20:18.747Z,9.33
2019-01-20T01:22:47.798Z,9.33
2019-01-20T01:25:17.218Z,9.47
2019-01-20T01:27:45.838Z,8.90
2019-01-20T01:30:19.999Z,8.60
2019-01-20T01:32:48.892Z,8.40
2019-01-20T01:35:17.660Z,9.03
2019-01-20T01:37:46.321Z,9.30
2019-01-20T01:40:16.620Z,9.20
2019-01-20T01:42:47.178Z,8.20
2019-01-20T01:45:17.863Z,9.47
2019-01-20T01:47:46.497Z,9.13
2019-01-20T01:50:18.351Z,9.13
2019-01-20T01:52:47.354Z,9.93
2019-01-20T01:55:16.300Z,8.43
2019-01-20T01:57:44.922Z,9.67
2019-01-20T02:00:18.822Z,9.23
2019-01-20T02:02:48.393Z,9.63
2019-01-20T02:05:17.352Z,9.40
2019-01-20T02:07:45.987Z,9.53
2019-01-20T02:10:19.944Z,9.57
2019-01-20T02:12:49.227Z,9.37
2019-01-20T02:15:19.597Z,9.10
2019-01-20T02:17:49.299Z,8.60
2019-01-20T02:20:20.649Z,8.83
2019-01-20T02:22:50.969Z,9.57
2019-01-20T02:25:21.327Z,9.03
2019-01-20T02:27:51.913Z,8.53
2019-01-20T02:30:23.614Z,8.87
2019-01-20T02:32:52.717Z,8.37
2019-01-20T02:35:21.472Z,8.23
2019-01-20T02:37:50.697Z,9.00
2019-01-20T02:40:19.471Z,8.60
2019-01-20T02:42:48.371Z,9.10
2019-01-20T02:45:17.672Z,8.73
2019-01-20T02:47:49.496Z,8.83
2019-01-20T02:50:19.199Z,8.77
2019-01-20T02:52:49.516Z,8.60
2019-01-20T02:55:21.304Z,7.97
2019-01-20T02:57:50.425Z,9.30
2019-01-20T03:00:22.006Z,8.80
2019-01-20T03:02:51.210Z,8.07
2019-01-20T03:05:21.431Z,9.07
2019-01-20T03:07:50.534Z,8.37
2019-01-20T03:10:19.468Z,8.47
2019-01-20T03:12:48.392Z,8.40
2019-01-20T03:15:19.088Z,9.13
2019-01-20T08:46:49.917Z,13.03
2019-01-20T08:49:18.471Z,13.50
2019-01-20T08:51:47.142Z,13.40
2019-01-20T08:54:15.773Z,14.60
2019-01-20T08:56:44.579Z,14.30
2019-01-20T08:59:24.514Z,13.47
2019-01-20T09:01:53.178Z,13.37
2019-01-20T09:04:21.754Z,13.93
2019-01-20T09:06:50.340Z,14.60
2019-01-20T09:09:18.934Z,13.17
2019-01-20T09:11:47.491Z,14.40
2019-01-20T09:14:21.976Z,14.87
2019-01-20T09:16:52.670Z,14.97
2019-01-20T09:19:21.260Z,14.50
2019-01-20T09:21:49.836Z,14.83
2019-01-20T09:24:19.185Z,13.90
2019-01-20T09:26:47.799Z,13.93
2019-01-20T09:29:28.526Z,13.00
2019-01-20T09:31:57.312Z,13.97
2019-01-20T09:34:26.108Z,13.07
2019-01-20T09:36:56.619Z,13.60
2019-01-20T09:39:25.242Z,14.33
2019-01-20T09:41:53.793Z,14.57
2019-01-20T09:44:22.372Z,13.70
2019-01-20T09:46:50.969Z,14.27
2019-01-20T09:49:19.621Z,14.37
2019-01-20T09:51:48.296Z,15.37
2019-01-20T09:54:16.923Z,13.80
2019-01-20T09:56:46.026Z,14.70
2019-01-20T09:59:14.586Z,14.70
2019-01-20T10:01:43.334Z,14.20
2019-01-20T10:04:11.911Z,14.33
2019-01-20T10:06:40.610Z,13.93
2019-01-20T10:09:15.022Z,14.27
2019-01-20T10:11:47.128Z,14.17
2019-01-20T10:14:15.975Z,13.90
2019-01-20T10:16:52.978Z,13.30
2019-01-20T10:19:23.450Z,13.73
2019-01-20T10:21:52.617Z,14.27
2019-01-20T10:24:21.175Z,14.27
2019-01-20T10:26:49.809Z,12.93
2019-01-20T10:29:18.472Z,14.33
2019-01-20T10:31:47.260Z,13.87
2019-01-20T10:34:16.261Z,14.00
2019-01-20T10:36:44.980Z,15.50
2019-01-20T10:39:13.627Z,14.73
2019-01-20T10:41:42.311Z,13.87
2019-01-20T10:44:11.077Z,14.23
2019-01-20T10:46:39.642Z,14.57
2019-01-20T10:49:17.768Z,14.07
2019-01-20T10:51:46.999Z,14.63
2019-01-20T10:54:15.563Z,14.40
2019-01-20T10:56:44.128Z,14.17
2019-01-20T10:59:13.749Z,14.17
2019-01-20T11:01:42.303Z,13.80
2019-01-20T11:04:15.415Z,14.13
2019-01-20T11:06:44.748Z,13.67
2019-01-20T11:09:13.388Z,14.40
2019-01-20T11:11:42.307Z,15.03
2019-01-20T11:14:11.010Z,14.07
2019-01-20T11:16:39.636Z,14.47
2019-01-20T11:19:08.203Z,14.80
2019-01-20T11:21:37.470Z,13.27
2019-01-20T11:24:06.110Z,14.77
2019-01-20T11:26:34.944Z,13.97
2019-01-20T11:29:03.630Z,14.07
2019-01-20T11:31:32.201Z,14.07
2019-01-20T11:34:02.332Z,13.27
2019-01-20T11:36:30.887Z,13.57
2019-01-20T11:39:01.771Z,14.70
2019-01-20T11:41:30.342Z,14.40
2019-01-20T11:44:01.616Z,13.67
2019-01-20T11:46:35.366Z,13.27
2019-01-20T11:49:06.854Z,13.33
2019-01-20T11:51:38.284Z,12.53
2019-01-20T11:54:06.928Z,14.03
2019-01-20T11:56:35.544Z,13.23
2019-01-20T11:59:04.315Z,13.27
2019-01-20T12:01:33.024Z,13.23
2019-01-20T12:04:04.402Z,14.30
2019-01-20T12:06:33.021Z,13.70
2019-01-20T12:09:01.609Z,14.00
2019-01-20T12:11:33.098Z,13.30
2019-01-20T12:14:07.291Z,13.10
2019-01-20T12:16:38.574Z,13.67
2019-01-20T12:19:14.050Z,14.27
2019-01-20T12:21:45.703Z,13.73
2019-01-20T12:24:14.261Z,13.33
2019-01-20T12:26:42.894Z,12.80
2019-01-20T12:29:11.503Z,13.27
2019-01-20T12:31:40.973Z,13.07
2019-01-20T12:34:25.540Z,12.93
2019-01-20T12:36:55.897Z,11.17
2019-01-20T12:39:24.440Z,12.53
2019-01-20T12:41:53.061Z,11.70
2019-01-20T12:44:21.945Z,12.73
2019-01-20T12:46:50.616Z,13.00
2019-01-20T12:49:21.391Z,13.60
2019-01-20T12:51:50.079Z,12.63
2019-01-20T12:54:18.629Z,13.20
2019-01-20T12:56:47.380Z,12.40
2019-01-20T12:59:16.007Z,12.30
2019-01-20T13:01:47.871Z,12.20
2019-01-20T13:04:17.971Z,12.90
2019-01-20T13:06:49.393Z,13.43
2019-01-20T13:09:18.023Z,12.83
2019-01-20T13:11:46.657Z,13.17
2019-01-20T13:14:38.921Z,12.77
2019-01-20T13:17:05.688Z,12.27
2019-01-20T13:19:36.941Z,12.33
2019-01-20T13:22:05.558Z,13.23
2019-01-20T13:24:37.499Z,13.53
2019-01-20T13:27:10.629Z,13.50
2019-01-20T13:29:39.346Z,13.70
2019-01-20T13:32:07.980Z,13.47
2019-01-20T13:34:38.163Z,13.10
2019-01-20T13:37:09.274Z,14.40
2019-01-20T13:39:40.510Z,13.50
2019-01-20T13:42:09.157Z,13.93
2019-01-20T13:44:46.054Z,13.97
2019-01-20T13:47:12.333Z,13.53
2019-01-20T13:49:41.112Z,13.20
2019-01-20T13:52:10.093Z,13.67
2019-01-20T13:54:38.683Z,13.10
2019-01-20T13:57:08.793Z,13.47
2019-01-20T13:59:40.059Z,13.13
2019-01-20T14:02:08.686Z,13.17
2019-01-20T14:04:37.260Z,12.70
2019-01-20T14:07:07.421Z,13.50
2019-01-20T14:09:35.964Z,12.63
2019-01-20T14:12:04.710Z,12.63
2019-01-20T14:14:39.524Z,13.13
2019-01-20T14:17:07.753Z,12.53
2019-01-20T14:19:36.380Z,13.03
2019-01-20T14:22:05.548Z,13.13
2019-01-20T14:24:35.065Z,12.77
2019-01-20T14:27:04.872Z,13.00
2019-01-20T14:29:33.505Z,13.50
2019-01-20T14:32:02.206Z,13.00
2019-01-20T14:34:30.777Z,13.30
2019-01-20T14:36:59.346Z,13.23
2019-01-20T14:39:27.943Z,12.87
2019-01-20T14:41:56.503Z,12.40
2019-01-20T14:44:25.112Z,12.63
2019-01-20T14:46:54.651Z,13.07
2019-01-20T14:49:23.336Z,13.03
2019-01-20T14:51:52.065Z,13.93
2019-01-20T14:54:21.086Z,12.67
2019-01-20T14:56:49.727Z,13.40
2019-01-20T14:59:18.317Z,13.30
2019-01-20T15:01:46.884Z,13.33
2019-01-20T15:04:15.458Z,13.43
2019-01-20T15:06:44.126Z,12.90
2019-01-20T15:09:12.671Z,12.77
2019-01-20T15:11:41.249Z,14.27
2019-01-20T15:14:11.478Z,13.37
2019-01-20T15:16:53.970Z,14.00
2019-01-20T15:19:22.570Z,13.33
2019-01-20T15:21:51.140Z,14.33
2019-01-20T15:24:19.769Z,14.47
2019-01-20T15:26:48.354Z,14.50
2019-01-20T15:29:18.438Z,14.53
2019-01-20T15:31:47.033Z,14.43
2019-01-20T15:34:27.304Z,13.93
2019-01-20T15:36:55.919Z,14.60
2019-01-20T15:39:28.785Z,14.43
2019-01-20T15:41:57.496Z,14.17
2019-01-20T15:44:26.254Z,14.67
2019-01-20T15:46:54.965Z,15.20
2019-01-20T15:49:23.648Z,14.10
2019-01-20T15:51:52.297Z,14.30
2019-01-20T15:54:21.749Z,13.67
2019-01-20T15:56:50.327Z,14.67
2019-01-20T15:59:21.661Z,14.07
2019-01-20T16:01:50.585Z,14.23
2019-01-20T16:04:23.950Z,14.03
2019-01-20T16:06:49.375Z,14.13
2019-01-20T16:09:18.121Z,14.33
2019-01-20T16:11:46.662Z,14.67
2019-01-20T16:14:15.224Z,14.93
2019-01-20T16:16:43.851Z,15.23
2019-01-20T16:19:12.433Z,14.47
2019-01-20T16:21:41.077Z,14.33
2019-01-20T16:24:09.655Z,14.27
2019-01-20T16:26:38.273Z,14.23
2019-01-20T16:29:06.878Z,15.30
2019-01-20T16:31:39.772Z,13.97
2019-01-20T16:34:05.710Z,13.73
2019-01-20T16:36:34.352Z,13.93
2019-01-20T16:39:05.518Z,14.17
2019-01-20T16:41:34.506Z,14.67
2019-01-20T16:44:03.116Z,13.93
2019-01-20T16:46:31.711Z,14.27
2019-01-20T16:49:00.297Z,14.17
2019-01-20T16:51:28.914Z,14.83
2019-01-20T16:54:00.567Z,14.30
2019-01-20T16:56:36.299Z,13.83
2019-01-20T16:59:07.445Z,15.40
2019-01-20T17:01:37.544Z,15.33
2019-01-20T17:04:06.292Z,15.47
2019-01-20T17:06:34.995Z,14.33
2019-01-20T17:09:05.104Z,13.67
2019-01-20T17:11:33.706Z,14.07
2019-01-20T17:14:02.695Z,14.13
2019-01-20T17:16:31.499Z,14.03
2019-01-20T17:19:00.464Z,12.87
2019-01-20T17:21:29.257Z,13.60
2019-01-20T17:23:58.422Z,12.53
2019-01-20T17:26:28.994Z,12.90
2019-01-20T17:28:57.982Z,13.33
2019-01-20T17:31:26.799Z,13.27
2019-01-20T17:33:58.364Z,13.97
2019-01-20T17:36:27.118Z,13.57
2019-01-20T17:38:58.390Z,13.70
2019-01-20T17:41:27.245Z,13.77
2019-01-20T17:43:56.114Z,14.00
2019-01-20T17:46:25.026Z,13.80
2019-01-20T17:48:53.859Z,14.30
2019-01-20T17:51:22.654Z,12.87
2019-01-20T17:53:51.483Z,14.03
2019-01-20T17:56:20.378Z,12.90
2019-01-20T17:58:50.050Z,12.47
2019-01-20T18:01:19.082Z,14.00
2019-01-20T18:03:47.864Z,12.83
2019-01-20T18:06:16.591Z,12.63
2019-01-20T18:08:49.534Z,12.87
2019-01-20T18:11:15.957Z,12.57
2019-01-20T18:13:44.755Z,12.27
2019-01-20T18:16:13.772Z,13.53
2019-01-20T18:18:43.042Z,13.03
2019-01-20T18:21:11.992Z,11.87
2019-01-20T18:23:40.910Z,13.70
2019-01-20T18:26:11.217Z,13.10
2019-01-20T18:28:40.003Z,12.93
2019-01-20T18:31:08.784Z,12.47
2019-01-20T18:33:37.711Z,11.73
2019-01-20T18:36:07.585Z,12.70
2019-01-20T18:38:36.502Z,12.20
2019-01-20T18:41:05.386Z,10.40
2019-01-20T18:43:34.487Z,11.07
2019-01-20T18:46:03.292Z,11.50
2019-01-20T18:48:32.071Z,11.50
2019-01-20T18:51:03.973Z,11.37
2019-01-20T18:53:43.620Z,12.57
2019-01-20T18:56:12.202Z,11.50
2019-01-20T18:58:42.064Z,11.43
2019-01-20T19:01:11.321Z,11.13
2019-01-20T19:03:40.207Z,11.67
2019-01-20T19:06:09.020Z,11.77
2019-01-20T19:08:37.891Z,11.17
2019-01-20T19:11:06.807Z,11.03
2019-01-20T19:13:35.706Z,12.30
2019-01-20T19:16:08.869Z,11.23
2019-01-20T19:18:35.501Z,11.37
2019-01-20T19:21:04.362Z,11.70
2019-01-20T19:23:33.393Z,11.00
2019-01-20T19:26:03.764Z,10.33
2019-01-20T19:28:35.987Z,11.23
2019-01-20T19:31:05.481Z,11.17
2019-01-20T19:33:34.544Z,11.87
2019-01-20T19:36:03.588Z,11.10
2019-01-20T19:38:32.583Z,11.37
2019-01-20T19:41:01.468Z,12.50
2019-01-20T19:43:30.427Z,12.03
2019-01-20T19:45:59.429Z,11.10
2019-01-20T19:48:28.523Z,12.10
2019-01-20T19:50:57.518Z,11.27
2019-01-20T19:53:26.853Z,12.10
2019-01-20T19:55:56.172Z,11.13
2019-01-20T19:58:25.542Z,11.80
2019-01-20T20:00:55.027Z,11.13
2019-01-20T20:03:25.765Z,11.83
2019-01-20T20:05:54.886Z,11.90
2019-01-20T20:08:23.864Z,11.33
2019-01-20T20:10:52.953Z,11.07
2019-01-20T20:13:21.840Z,11.53
2019-01-20T20:15:50.796Z,10.90
2019-01-20T20:18:19.825Z,11.27
2019-01-20T20:20:48.766Z,10.63
2019-01-20T20:23:17.400Z,11.60
2019-01-20T20:25:46.052Z,11.47
2019-01-20T20:28:14.763Z,12.60
2019-01-20T20:30:43.462Z,11.77
2019-01-20T20:33:12.090Z,11.50
2019-01-20T20:35:40.951Z,11.00
2019-01-20T20:38:09.598Z,11.53
2019-01-20T20:40:38.170Z,11.13
2019-01-20T20:43:06.909Z,11.10
2019-01-20T20:45:35.764Z,11.27
2019-01-20T20:48:04.447Z,11.33
2019-01-20T20:50:36.499Z,10.73
2019-01-20T20:53:05.322Z,11.20
2019-01-20T20:55:34.115Z,11.17
2019-01-20T20:58:02.841Z,11.40
2019-01-20T21:00:37.504Z,10.60
2019-01-20T21:03:09.254Z,10.80
2019-01-20T21:05:38.063Z,11.20
2019-01-20T21:08:06.713Z,11.13
2019-01-20T21:10:35.448Z,11.20
2019-01-20T21:13:04.125Z,11.13
2019-01-20T21:15:32.993Z,12.10
2019-01-20T21:18:07.595Z,11.17
2019-01-20T21:20:38.212Z,12.30
2019-01-20T21:23:12.300Z,11.33
2019-01-20T21:25:39.854Z,10.87
2019-01-20T21:28:10.073Z,11.57
2019-01-20T21:30:39.286Z,10.50
2019-01-20T21:33:07.985Z,10.70
2019-01-20T21:35:36.727Z,11.07
2019-01-20T21:38:06.896Z,10.57
2019-01-20T21:40:35.981Z,11.20
2019-01-20T21:43:06.294Z,11.63
2019-01-20T21:45:36.001Z,11.60
2019-01-20T21:48:04.808Z,10.77
2019-01-20T21:50:33.547Z,11.43
2019-01-20T21:53:02.406Z,12.10
2019-01-20T21:55:31.054Z,11.03
2019-01-20T21:58:00.528Z,12.20
2019-01-20T22:00:30.349Z,11.00
2019-01-20T22:02:58.974Z,11.97
2019-01-20T22:05:27.645Z,10.83
2019-01-20T22:07:56.310Z,11.13
2019-01-20T22:10:25.410Z,11.00
2019-01-20T22:12:54.686Z,10.70
2019-01-20T22:15:23.458Z,11.50
2019-01-20T22:17:53.574Z,10.70
2019-01-20T22:20:23.916Z,11.17
2019-01-20T22:22:52.954Z,11.20
2019-01-20T22:25:21.623Z,11.83
2019-01-20T22:27:52.065Z,11.53
2019-01-20T22:30:22.423Z,11.60
2019-01-20T22:32:51.167Z,11.63
2019-01-20T22:35:21.510Z,12.03
2019-01-20T22:37:50.202Z,11.67
2019-01-20T22:40:19.457Z,11.40
2019-01-20T22:42:48.791Z,10.80
2019-01-20T22:45:20.416Z,11.23
2019-01-20T22:47:48.991Z,11.50
2019-01-20T22:50:17.713Z,10.83
2019-01-20T22:52:46.567Z,11.97
2019-01-20T22:55:17.396Z,11.53
2019-01-20T22:57:45.979Z,11.37
2019-01-20T23:00:21.436Z,11.33
2019-01-20T23:02:50.149Z,11.93
2019-01-20T23:05:18.784Z,11.63
2019-01-20T23:07:47.545Z,11.77
2019-01-20T23:10:16.101Z,12.40
2019-01-20T23:12:44.661Z,11.93
2019-01-20T23:15:13.518Z,11.90
2019-01-20T23:17:42.138Z,13.13
2019-01-20T23:20:14.474Z,11.40
2019-01-20T23:22:43.108Z,12.43
2019-01-20T23:25:14.836Z,13.03
2019-01-20T23:27:43.512Z,13.03
2019-01-20T23:30:14.685Z,13.07
2019-01-20T23:32:43.285Z,12.50
2019-01-20T23:35:14.334Z,12.43
2019-01-20T23:37:43.148Z,12.83
2019-01-20T23:40:14.224Z,13.10
2019-01-20T23:42:42.785Z,12.47
2019-01-20T23:45:14.738Z,13.10
2019-01-20T23:47:47.050Z,14.30
2019-01-20T23:50:17.329Z,13.00
2019-01-20T23:52:46.074Z,13.97
2019-01-20T23:55:17.221Z,14.40
2019-01-20T23:57:45.870Z,12.73
